createdAt,value
2023-03-01T00:01:43.763Z,102333.46
2023-03-01T00:04:11.523Z,102334.89
2023-03-01T00:06:39.064Z,102334.25
2023-03-01T00:09:07.477Z,102331.90
2023-03-01T00:11:35.150Z,102328.50
2023-03-01T00:14:10.234Z,102327.49
2023-03-01T00:16:41.508Z,102331.63
2023-03-01T00:19:15.275Z,102328.73
2023-03-01T00:21:42.883Z,102334.59
2023-03-01T00:24:11.000Z,102326.00
2023-03-01T00:26:39.108Z,102325.84
2023-03-01T00:29:07.406Z,102322.98
2023-03-01T00:31:35.608Z,102325.92
2023-03-01T00:34:05.967Z,102324.04
2023-03-01T00:36:37.933Z,102321.48
2023-03-01T00:39:11.833Z,102323.04
2023-03-01T00:41:40.706Z,102320.83
2023-03-01T00:44:10.345Z,102318.95
2023-03-01T00:46:38.098Z,102317.58
2023-03-01T00:49:05.789Z,102319.13
2023-03-01T00:51:33.832Z,102316.56
2023-03-01T00:54:03.320Z,102308.70
2023-03-01T00:56:32.385Z,102304.41
2023-03-01T00:59:00.524Z,102299.51
2023-03-01T01:01:30.872Z,102293.12
2023-03-01T01:04:07.509Z,102291.59
2023-03-01T01:07:01.301Z,102289.34
2023-03-01T01:09:28.779Z,102279.92
2023-03-01T01:11:56.181Z,102280.12
2023-03-01T01:14:23.631Z,102277.89
2023-03-01T01:16:51.610Z,102275.36
2023-03-01T01:19:19.128Z,102270.73
2023-03-01T01:21:47.397Z,102268.68
2023-03-01T01:24:16.237Z,102266.14
2023-03-01T01:26:44.749Z,102263.41
2023-03-01T01:29:13.840Z,102263.59
2023-03-01T01:31:43.439Z,102258.45
2023-03-01T01:34:23.399Z,102255.55
2023-03-01T01:36:56.281Z,102251.96
2023-03-01T01:39:23.729Z,102253.16
2023-03-01T01:41:51.141Z,102252.14
2023-03-01T01:44:24.008Z,102247.35
2023-03-01T01:47:02.370Z,102244.94
2023-03-01T01:49:38.606Z,102240.64
2023-03-01T01:52:11.356Z,102234.16
2023-03-01T01:54:50.109Z,102225.42
2023-03-01T01:57:27.989Z,102226.45
2023-03-01T02:00:01.366Z,102225.62
2023-03-01T02:02:29.101Z,102221.67
2023-03-01T02:05:12.360Z,102218.27
2023-03-01T02:07:41.856Z,102214.00
2023-03-01T02:10:10.304Z,102212.31
2023-03-01T02:12:39.414Z,102212.51
2023-03-01T02:15:07.372Z,102208.75
2023-03-01T02:17:36.272Z,102208.42
2023-03-01T02:20:33.890Z,102204.31
2023-03-01T02:23:01.966Z,102199.54
2023-03-01T02:25:51.467Z,102202.79
2023-03-01T02:28:32.638Z,102204.34
2023-03-01T02:31:19.599Z,102200.91
2023-03-01T02:33:49.073Z,102204.00
2023-03-01T02:36:22.487Z,102204.00
2023-03-01T02:38:54.309Z,102205.88
2023-03-01T02:41:24.286Z,102207.08
2023-03-01T02:43:51.747Z,102208.27
2023-03-01T02:46:23.686Z,102208.95
2023-03-01T02:48:58.223Z,102204.33
2023-03-01T02:52:08.395Z,102202.62
2023-03-01T02:55:05.813Z,102204.68
2023-03-01T02:57:36.581Z,102201.60
2023-03-01T03:00:10.013Z,102205.36
2023-03-01T03:02:38.188Z,102204.17
2023-03-01T03:05:31.161Z,102200.06
2023-03-01T03:08:01.792Z,102197.33
2023-03-01T03:10:40.034Z,102193.57
2023-03-01T03:13:14.624Z,102192.55
2023-03-01T03:15:44.172Z,102191.17
2023-03-01T03:18:16.158Z,102194.42
2023-03-01T03:20:44.578Z,102191.34
2023-03-01T03:23:12.610Z,102186.73
2023-03-01T03:25:40.095Z,102187.58
2023-03-01T03:28:11.275Z,102186.39
2023-03-01T03:30:41.881Z,102182.29
2023-03-01T03:33:13.426Z,102181.77
2023-03-01T03:35:45.641Z,102181.09
2023-03-01T03:38:17.996Z,102182.46
2023-03-01T03:41:04.558Z,102181.77
2023-03-01T03:43:34.320Z,102183.83
2023-03-01T03:46:06.294Z,102185.36
2023-03-01T03:48:44.390Z,102184.85
2023-03-01T03:51:17.527Z,102185.02
2023-03-01T03:53:45.864Z,102184.85
2023-03-01T03:56:13.481Z,102185.19
2023-03-01T03:58:41.360Z,102186.72
2023-03-01T04:01:08.736Z,102180.21
2023-03-01T04:03:36.195Z,102181.58
2023-03-01T04:06:04.859Z,102181.07
2023-03-01T04:08:32.789Z,102169.96
2023-03-01T04:11:25.094Z,102164.82
2023-03-01T04:13:56.566Z,102159.86
2023-03-01T04:16:24.770Z,102155.59
2023-03-01T04:18:54.076Z,102159.85
2023-03-01T04:21:22.510Z,102156.94
2023-03-01T04:23:53.032Z,102156.06
2023-03-01T04:26:20.808Z,102162.02
2023-03-01T04:28:50.052Z,102159.27
2023-03-01T04:31:21.690Z,102156.68
2023-03-01T04:33:55.468Z,102155.30
2023-03-01T04:36:28.843Z,102155.28
2023-03-01T04:38:56.931Z,102164.15
2023-03-01T04:41:26.125Z,102163.81
2023-03-01T04:43:55.063Z,102170.45
2023-03-01T04:46:22.891Z,102172.32
2023-03-01T04:48:50.491Z,102174.71
2023-03-01T04:51:19.001Z,102178.11
2023-03-01T04:53:47.116Z,102179.64
2023-03-01T04:56:15.344Z,102180.13
2023-03-01T04:58:43.240Z,102185.59
2023-03-01T05:01:17.704Z,102187.65
2023-03-01T05:03:52.822Z,102189.86
2023-03-01T05:06:22.089Z,102193.30
2023-03-01T05:08:49.636Z,102199.27
2023-03-01T05:11:17.151Z,102205.08
2023-03-01T05:13:44.654Z,102201.83
2023-03-01T05:16:12.874Z,102206.30
2023-03-01T05:18:41.428Z,102205.33
2023-03-01T05:21:16.487Z,102208.06
2023-03-01T05:23:44.935Z,102206.20
2023-03-01T05:26:27.475Z,102206.04
2023-03-01T05:28:57.396Z,102206.89
2023-03-01T05:31:25.674Z,102207.25
2023-03-01T05:33:53.362Z,102206.41
2023-03-01T05:36:20.838Z,102207.94
2023-03-01T05:38:48.532Z,102207.23
2023-03-01T05:41:17.982Z,102209.10
2023-03-01T05:43:45.552Z,102210.80
2023-03-01T05:46:13.852Z,102218.99
2023-03-01T05:48:41.387Z,102215.91
2023-03-01T05:51:08.838Z,102216.61
2023-03-01T05:53:36.384Z,102221.39
2023-03-01T05:56:10.342Z,102224.49
2023-03-01T05:58:39.125Z,102228.79
2023-03-01T06:01:06.564Z,102231.19
2023-03-01T06:03:33.984Z,102227.73
2023-03-01T06:06:01.456Z,102228.78
2023-03-01T06:08:28.996Z,102226.26
2023-03-01T06:10:56.492Z,102223.86
2023-03-01T06:13:25.755Z,102223.55
2023-03-01T06:15:53.251Z,102218.77
2023-03-01T06:18:20.853Z,102221.00
2023-03-01T06:20:54.996Z,102219.98
2023-03-01T06:23:24.761Z,102218.63
2023-03-01T06:25:53.413Z,102221.38
2023-03-01T06:28:20.985Z,102216.27
2023-03-01T06:30:50.314Z,102218.14
2023-03-01T06:33:24.954Z,102215.40
2023-03-01T06:35:57.011Z,102220.53
2023-03-01T06:38:26.095Z,102218.16
2023-03-01T06:40:57.595Z,102217.13
2023-03-01T06:43:25.287Z,102214.08
2023-03-01T06:45:52.753Z,102209.80
2023-03-01T06:48:20.231Z,102210.14
2023-03-01T06:50:47.792Z,102214.94
2023-03-01T06:53:15.333Z,102214.42
2023-03-01T06:55:43.211Z,102218.70
2023-03-01T06:58:11.639Z,102215.79
2023-03-01T07:00:41.216Z,102215.63
2023-03-01T07:03:09.837Z,102213.06
2023-03-01T07:05:37.420Z,102217.16
2023-03-01T07:08:05.103Z,102211.85
2023-03-01T07:10:32.903Z,102207.76
2023-03-01T07:13:00.480Z,102202.95
2023-03-01T07:15:28.754Z,102207.55
2023-03-01T07:17:57.199Z,102201.54
2023-03-01T07:20:25.768Z,102200.52
2023-03-01T07:22:56.896Z,102202.88
2023-03-01T07:25:25.131Z,102201.60
2023-03-01T07:27:54.449Z,102196.30
2023-03-01T07:30:23.043Z,102194.58
2023-03-01T07:32:50.584Z,102194.21
2023-03-01T07:35:18.602Z,102191.75
2023-03-01T07:37:46.158Z,102188.54
2023-03-01T07:40:13.737Z,102186.05
2023-03-01T07:42:41.203Z,102184.89
2023-03-01T07:45:09.664Z,102185.31
2023-03-01T07:47:37.435Z,102179.61
2023-03-01T07:50:05.941Z,102185.85
2023-03-01T07:52:33.567Z,102181.66
2023-03-01T07:55:01.126Z,102184.38
2023-03-01T07:57:28.713Z,102183.79
2023-03-01T07:59:56.203Z,102189.20
2023-03-01T08:02:23.888Z,102190.52
2023-03-01T08:04:51.230Z,102184.95
2023-03-01T08:07:18.744Z,102170.67
2023-03-01T08:09:46.186Z,102169.81
2023-03-01T08:12:13.718Z,102167.01
2023-03-01T08:14:41.123Z,102164.75
2023-03-01T08:17:08.625Z,102159.40
2023-03-01T08:19:36.540Z,102160.86
2023-03-01T08:22:04.074Z,102157.02
2023-03-01T08:24:31.536Z,102152.45
2023-03-01T08:26:58.971Z,102152.21
2023-03-01T08:29:26.444Z,102146.49
2023-03-01T08:31:53.973Z,102147.45
2023-03-01T08:34:21.662Z,102139.61
2023-03-01T08:36:50.706Z,102135.56
2023-03-01T08:39:20.587Z,102137.77
2023-03-01T08:41:48.940Z,102133.16
2023-03-01T08:44:21.493Z,102131.54
2023-03-01T08:46:50.546Z,102126.91
2023-03-01T08:49:19.818Z,102116.02
2023-03-01T08:51:48.304Z,102121.77
2023-03-01T08:54:19.853Z,102115.44
2023-03-01T08:56:48.436Z,102114.11
2023-03-01T08:59:17.793Z,102114.66
2023-03-01T09:01:46.135Z,102111.54
2023-03-01T09:04:15.672Z,102102.63
2023-03-01T09:06:43.331Z,102100.45
2023-03-01T09:09:17.570Z,102099.75
2023-03-01T09:18:30.046Z,102094.59
2023-03-01T09:21:18.320Z,102091.70
2023-03-01T09:23:49.921Z,102090.89
2023-03-01T09:26:32.969Z,102092.02
2023-03-01T09:29:02.094Z,102091.14
2023-03-01T09:31:30.870Z,102083.76
2023-03-01T09:33:59.798Z,102081.14
2023-03-01T09:36:29.249Z,102082.41
2023-03-01T09:39:02.773Z,102088.48
2023-03-01T09:42:06.960Z,102087.66
2023-03-01T09:44:59.223Z,102082.61
2023-03-01T09:47:46.268Z,102078.95
2023-03-01T09:50:19.039Z,102078.02
2023-03-01T09:53:08.873Z,102079.69
2023-03-01T09:56:34.492Z,102076.77
2023-03-01T09:59:15.318Z,102075.67
2023-03-01T10:02:02.473Z,102069.77
2023-03-01T10:04:49.530Z,102066.27
2023-03-01T10:07:46.062Z,102060.49
2023-03-01T10:10:37.682Z,102060.16
2023-03-01T10:13:27.167Z,102071.02
2023-03-01T10:16:13.150Z,102065.04
2023-03-01T10:18:42.717Z,102065.58
2023-03-01T10:21:21.728Z,102068.98
2023-03-01T10:23:54.675Z,102070.23
2023-03-01T10:27:04.724Z,102064.72
2023-03-01T10:29:51.809Z,102056.98
2023-03-01T10:32:25.090Z,102056.08
2023-03-01T10:34:54.135Z,102057.56
2023-03-01T10:37:25.640Z,102052.66
2023-03-01T10:40:09.812Z,102046.86
2023-03-01T10:42:50.744Z,102048.16
2023-03-01T10:45:36.073Z,102046.93
2023-03-01T10:48:20.604Z,102042.27
2023-03-01T10:51:09.944Z,102043.27
2023-03-01T10:53:52.137Z,102033.85
2023-03-01T10:56:21.428Z,102027.48
2023-03-01T10:59:05.414Z,102023.09
2023-03-01T11:01:36.602Z,102019.96
2023-03-01T11:04:27.344Z,102014.66
2023-03-01T11:07:03.942Z,102009.84
2023-03-01T11:09:44.664Z,102004.04
2023-03-01T11:12:18.358Z,102005.91
2023-03-01T11:14:54.510Z,102006.69
2023-03-01T11:17:36.576Z,102004.83
2023-03-01T11:20:13.757Z,102004.66
2023-03-01T11:22:51.772Z,102002.77
2023-03-01T11:25:26.322Z,102000.77
2023-03-01T11:27:56.125Z,101997.40
2023-03-01T11:31:08.546Z,101997.71
2023-03-01T11:34:19.089Z,101997.55
2023-03-01T11:37:04.517Z,101997.17
2023-03-01T11:39:43.868Z,101998.27
2023-03-01T11:42:49.816Z,101999.61
2023-03-01T11:45:18.741Z,102000.02
2023-03-01T11:48:14.196Z,101991.71
2023-03-01T11:50:56.338Z,101985.94
2023-03-01T11:53:59.561Z,101984.64
2023-03-01T11:56:45.161Z,101982.02
2023-03-01T12:00:06.370Z,101981.63
2023-03-01T12:03:21.751Z,101973.46
2023-03-01T12:06:12.376Z,101965.38
2023-03-01T12:09:25.030Z,101966.70
2023-03-01T12:12:17.845Z,101968.27
2023-03-01T12:15:13.715Z,101963.86
2023-03-01T12:18:18.836Z,101958.69
2023-03-01T12:21:15.438Z,101955.00
2023-03-01T12:24:28.990Z,101950.13
2023-03-01T12:27:44.238Z,101952.66
2023-03-01T12:30:54.111Z,101953.20
2023-03-01T12:33:47.518Z,101954.20
2023-03-01T12:36:40.554Z,101955.94
2023-03-01T12:39:36.525Z,101954.65
2023-03-01T12:42:26.325Z,101960.17
2023-03-01T12:45:13.785Z,101951.64
2023-03-01T12:48:14.628Z,101959.34
2023-03-01T12:50:54.169Z,101945.21
2023-03-01T12:53:53.276Z,101947.62
2023-03-01T12:56:30.362Z,101950.85
2023-03-01T12:59:53.823Z,101942.08
2023-03-01T13:02:59.151Z,101945.20
2023-03-01T13:06:05.413Z,101941.52
2023-03-01T13:08:54.587Z,101937.30
2023-03-01T13:11:36.697Z,101936.33
2023-03-01T13:14:26.676Z,101935.13
2023-03-01T13:16:56.582Z,101937.81
2023-03-01T13:19:33.209Z,101937.27
2023-03-01T13:22:35.480Z,101936.18
2023-03-01T13:25:21.226Z,101933.46
2023-03-01T13:27:50.476Z,101932.29
2023-03-01T13:30:43.442Z,101937.38
2023-03-01T13:33:45.097Z,101926.10
2023-03-01T13:36:40.363Z,101920.51
2023-03-01T13:39:30.351Z,101923.31
2023-03-01T13:42:01.441Z,101922.26
2023-03-01T13:44:42.010Z,101920.69
2023-03-01T13:47:42.232Z,101927.00
2023-03-01T13:50:57.190Z,101921.02
2023-03-01T13:53:43.804Z,101921.11
2023-03-01T13:59:27.628Z,101913.51
2023-03-01T14:02:01.386Z,101913.36
2023-03-01T14:04:36.287Z,101907.64
2023-03-01T14:07:24.887Z,101909.70
2023-03-01T14:09:59.184Z,101909.27
2023-03-01T14:13:26.502Z,101908.52
2023-03-01T14:16:25.802Z,101907.41
2023-03-01T14:19:33.273Z,101903.54
2023-03-01T14:22:37.644Z,101896.44
2023-03-01T14:25:21.228Z,101903.95
2023-03-01T14:28:00.391Z,101904.71
2023-03-01T14:33:42.914Z,101899.88
2023-03-01T14:36:14.053Z,101894.55
2023-03-01T14:38:50.805Z,101893.08
2023-03-01T14:41:29.645Z,101894.45
2023-03-01T14:44:13.163Z,101896.35
2023-03-01T14:46:43.937Z,101890.27
2023-03-01T14:49:17.862Z,101887.98
2023-03-01T14:51:57.356Z,101883.34
2023-03-01T14:54:51.753Z,101879.14
2023-03-01T14:57:26.009Z,101878.91
2023-03-01T15:00:01.430Z,101882.95
2023-03-01T15:02:32.026Z,101881.05
2023-03-01T15:05:08.965Z,101884.06
2023-03-01T15:07:42.725Z,101882.77
2023-03-01T15:10:24.940Z,101880.08
2023-03-01T15:12:59.131Z,101879.14
2023-03-01T15:15:38.780Z,101879.19
2023-03-01T15:18:29.601Z,101881.66
2023-03-01T15:21:21.066Z,101881.45
2023-03-01T15:24:20.611Z,101874.00
2023-03-01T15:27:08.623Z,101874.09
2023-03-01T15:29:41.151Z,101867.28
2023-03-01T15:32:31.491Z,101866.30
2023-03-01T15:35:01.910Z,101863.19
2023-03-01T15:38:01.773Z,101852.19
2023-03-01T15:40:31.979Z,101856.88
2023-03-01T15:43:59.712Z,101862.48
2023-03-01T15:46:39.746Z,101864.40
2023-03-01T15:49:55.047Z,101862.36
2023-03-01T15:52:48.378Z,101865.58
2023-03-01T15:55:31.388Z,101865.41
2023-03-01T15:58:19.207Z,101868.51
2023-03-01T16:01:00.344Z,101872.47
2023-03-01T16:03:29.381Z,101869.95
2023-03-01T16:05:57.432Z,101874.43
2023-03-01T16:08:25.020Z,101885.60
2023-03-01T16:10:56.126Z,101887.30
2023-03-01T16:13:24.047Z,101888.05
2023-03-01T16:15:52.069Z,101886.02
2023-03-01T16:18:19.675Z,101886.20
2023-03-01T16:20:47.610Z,101893.03
2023-03-01T16:23:15.964Z,101893.33
2023-03-01T16:25:43.495Z,101896.73
2023-03-01T16:28:11.085Z,101894.02
2023-03-01T16:30:51.195Z,101897.56
2023-03-01T16:33:27.096Z,101894.22
2023-03-01T16:36:00.719Z,101899.08
2023-03-01T16:38:29.442Z,101904.79
2023-03-01T16:40:56.802Z,101909.13
2023-03-01T16:43:24.412Z,101912.31
2023-03-01T16:45:52.267Z,101915.16
2023-03-01T16:48:19.612Z,101915.04
2023-03-01T16:51:02.100Z,101914.64
2023-03-01T16:53:29.989Z,101920.16
2023-03-01T16:55:59.550Z,101923.29
2023-03-01T16:58:27.057Z,101931.77
2023-03-01T17:00:56.901Z,101933.54
2023-03-01T17:03:26.853Z,101937.20
2023-03-01T17:05:54.258Z,101941.57
2023-03-01T17:08:21.699Z,101943.87
2023-03-01T17:10:49.068Z,101942.02
2023-03-01T17:13:16.523Z,101945.67
2023-03-01T17:15:44.069Z,101944.40
2023-03-01T17:18:11.550Z,101940.90
2023-03-01T17:20:38.941Z,101941.27
2023-03-01T17:23:06.255Z,101938.22
2023-03-01T17:25:34.773Z,101937.40
2023-03-01T17:28:02.330Z,101937.60
2023-03-01T17:30:30.084Z,101939.21
2023-03-01T17:32:57.646Z,101937.20
2023-03-01T17:35:25.249Z,101939.43
2023-03-01T17:37:52.711Z,101941.68
2023-03-01T17:40:20.198Z,101940.48
2023-03-01T17:42:47.671Z,101941.02
2023-03-01T17:45:15.169Z,101941.02
2023-03-01T17:47:42.658Z,101940.19
2023-03-01T17:50:12.090Z,101941.60
2023-03-01T17:52:40.981Z,101940.77
2023-03-01T17:55:09.678Z,101942.98
2023-03-01T17:57:41.465Z,101947.77
2023-03-01T18:00:14.721Z,101944.02
2023-03-01T18:02:43.863Z,101946.27
2023-03-01T18:05:11.628Z,101947.84
2023-03-01T18:07:39.306Z,101948.70
2023-03-01T18:10:07.226Z,101944.97
2023-03-01T18:12:34.987Z,101943.09
2023-03-01T18:15:02.488Z,101940.52
2023-03-01T18:17:29.933Z,101941.39
2023-03-01T18:19:58.449Z,101940.06
2023-03-01T18:22:26.207Z,101939.55
2023-03-01T18:24:53.608Z,101944.54
2023-03-01T18:27:21.262Z,101941.83
2023-03-01T18:29:48.747Z,101946.29
2023-03-01T18:32:16.589Z,101950.41
2023-03-01T18:34:45.093Z,101948.04
2023-03-01T18:37:12.570Z,101949.67
2023-03-01T18:39:41.333Z,101949.06
2023-03-01T18:42:08.840Z,101951.34
2023-03-01T18:44:38.244Z,101951.25
2023-03-01T18:47:05.741Z,101953.37
2023-03-01T18:49:33.255Z,101954.46
2023-03-01T18:52:00.764Z,101953.80
2023-03-01T18:54:28.119Z,101959.46
2023-03-01T18:56:55.531Z,101959.48
2023-03-01T18:59:22.965Z,101957.46
2023-03-01T19:01:51.008Z,101956.61
2023-03-01T19:04:18.597Z,101958.17
2023-03-01T19:06:46.067Z,101959.38
2023-03-01T19:09:14.662Z,101959.58
2023-03-01T19:11:42.276Z,101962.34
2023-03-01T19:14:10.694Z,101963.39
2023-03-01T19:16:38.018Z,101966.13
2023-03-01T19:19:08.082Z,101966.30
2023-03-01T19:21:36.376Z,101964.61
2023-03-01T19:24:05.083Z,101968.73
2023-03-01T19:26:33.289Z,101971.48
2023-03-01T19:29:02.846Z,101971.66
2023-03-01T19:31:31.323Z,101971.17
2023-03-01T19:34:10.915Z,101968.98
2023-03-01T19:36:42.975Z,101970.02
2023-03-01T19:39:13.176Z,101973.63
2023-03-01T19:41:42.759Z,101972.10
2023-03-01T19:44:11.143Z,101971.60
2023-03-01T19:46:38.761Z,101971.63
2023-03-01T19:49:09.205Z,101975.58
2023-03-01T19:51:38.671Z,101972.18
2023-03-01T19:54:06.484Z,101971.67
2023-03-01T19:56:34.587Z,101973.89
2023-03-01T19:59:04.078Z,101972.52
2023-03-01T20:01:34.168Z,101975.27
2023-03-01T20:04:02.834Z,101972.88
2023-03-01T20:06:31.544Z,101975.61
2023-03-01T20:09:02.357Z,101972.71
2023-03-01T20:11:34.933Z,101966.58
2023-03-01T20:14:06.180Z,101969.82
2023-03-01T20:16:34.103Z,101970.34
2023-03-01T20:19:02.215Z,101970.36
2023-03-01T20:21:29.727Z,101972.92
2023-03-01T20:23:57.218Z,101974.30
2023-03-01T20:26:26.315Z,101955.88
2023-03-01T20:28:57.021Z,101966.95
2023-03-01T20:31:29.640Z,101963.70
2023-03-01T20:33:58.857Z,101958.91
2023-03-01T20:36:27.771Z,101956.70
2023-03-01T20:38:56.298Z,101957.05
2023-03-01T20:41:28.168Z,101957.92
2023-03-01T20:43:58.153Z,101958.79
2023-03-01T20:46:27.001Z,101958.30
2023-03-01T20:48:54.774Z,101961.55
2023-03-01T20:51:22.225Z,101960.36
2023-03-01T20:53:49.809Z,101957.97
2023-03-01T20:56:19.657Z,101960.36
2023-03-01T20:59:08.949Z,101961.58
2023-03-01T21:01:38.233Z,101963.63
2023-03-01T21:04:06.649Z,101966.02
2023-03-01T21:06:36.938Z,101965.67
2023-03-01T21:09:06.818Z,101966.88
2023-03-01T21:11:34.264Z,101965.86
2023-03-01T21:14:03.514Z,101965.52
2023-03-01T21:16:33.058Z,101968.77
2023-03-01T21:19:02.368Z,101965.86
2023-03-01T21:21:33.444Z,101968.41
2023-03-01T21:24:01.012Z,101967.57
2023-03-01T21:26:28.428Z,101966.02
2023-03-01T21:29:00.991Z,101959.70
2023-03-01T21:31:37.109Z,101960.56
2023-03-01T21:34:07.228Z,101968.24
2023-03-01T21:36:35.957Z,101967.90
2023-03-01T21:39:07.006Z,101963.12
2023-03-01T21:41:37.184Z,101963.64
2023-03-01T21:44:08.155Z,101962.09
2023-03-01T21:46:42.058Z,101964.83
2023-03-01T21:49:12.830Z,101968.73
2023-03-01T21:51:40.773Z,101964.64
2023-03-01T21:54:11.842Z,101966.18
2023-03-01T21:56:40.256Z,101968.74
2023-03-01T21:59:16.244Z,101970.94
2023-03-01T22:01:46.908Z,101975.02
2023-03-01T22:04:15.696Z,101977.91
2023-03-01T22:06:46.639Z,101975.86
2023-03-01T22:09:19.572Z,101975.17
2023-03-01T22:12:01.751Z,101977.73
2023-03-01T22:14:32.121Z,101982.33
2023-03-01T22:16:59.634Z,101976.52
2023-03-01T22:19:28.211Z,101978.37
2023-03-01T22:22:00.824Z,101975.29
2023-03-01T22:24:28.433Z,101980.91
2023-03-01T22:26:56.346Z,101981.56
2023-03-01T22:29:29.397Z,101982.72
2023-03-01T22:32:00.258Z,101988.70
2023-03-01T22:34:31.925Z,101984.75
2023-03-01T22:36:59.341Z,101989.35
2023-03-01T22:39:27.619Z,101985.91
2023-03-01T22:41:54.958Z,101985.40
2023-03-01T22:44:25.201Z,101984.38
2023-03-01T22:46:55.195Z,101983.52
2023-03-01T22:49:22.611Z,101985.02
2023-03-01T22:51:53.536Z,101985.01
2023-03-01T22:54:21.923Z,101984.49
2023-03-01T22:56:49.765Z,101982.45
2023-03-01T22:59:22.453Z,101980.41
2023-03-01T23:01:52.347Z,101982.80
2023-03-01T23:04:23.767Z,101981.27
2023-03-01T23:06:55.495Z,101982.96
2023-03-01T23:09:33.323Z,101983.81
2023-03-01T23:12:06.079Z,101985.86
2023-03-01T23:14:34.539Z,101982.44
2023-03-01T23:17:06.776Z,101987.54
2023-03-01T23:19:34.262Z,101987.74
2023-03-01T23:22:01.745Z,101992.71
2023-03-01T23:24:30.897Z,101993.59
2023-03-01T23:27:03.580Z,101996.68
2023-03-01T23:29:31.789Z,101994.48
2023-03-01T23:31:59.613Z,101991.27
2023-03-01T23:34:27.874Z,101989.77
2023-03-01T23:36:55.573Z,101994.42
2023-03-01T23:39:23.164Z,101995.30
2023-03-01T23:41:50.994Z,101993.45
2023-03-01T23:44:21.654Z,101993.29
2023-03-01T23:46:50.181Z,101992.27
2023-03-01T23:49:24.435Z,101990.93
2023-03-01T23:51:52.019Z,101992.30
2023-03-01T23:54:23.134Z,101992.83
2023-03-01T23:56:51.327Z,101992.83
2023-03-01T23:59:23.976Z,101994.02
